createdAt,value
2018-08-02T00:00:48.961Z,67.17
2018-08-02T00:01:48.966Z,67.62
2018-08-02T00:02:48.970Z,67.62
2018-08-02T00:03:48.975Z,67.91
2018-08-02T00:04:48.981Z,67.71
2018-08-02T00:05:48.985Z,68.01
2018-08-02T00:06:48.989Z,68.04
2018-08-02T00:07:48.994Z,67.75
2018-08-02T00:08:49.000Z,68.04
2018-08-02T00:09:49.005Z,68.43
2018-08-02T00:10:49.008Z,68.19
2018-08-02T00:11:49.013Z,68.01
2018-08-02T00:12:49.018Z,68.19
2018-08-02T00:13:49.027Z,67.91
2018-08-02T00:14:49.028Z,68.10
2018-08-02T00:15:49.034Z,67.81
2018-08-02T00:16:49.037Z,68.29
2018-08-02T00:17:49.045Z,67.91
2018-08-02T00:18:49.048Z,68.39
2018-08-02T00:19:49.052Z,68.19
2018-08-02T00:20:49.058Z,68.77
2018-08-02T00:21:49.061Z,68.68
2018-08-02T00:22:49.067Z,68.77
2018-08-02T00:23:49.070Z,69.16
2018-08-02T00:24:49.077Z,69.35
2018-08-02T00:25:49.081Z,69.26
2018-08-02T00:26:49.084Z,69.16
2018-08-02T00:27:49.092Z,69.35
2018-08-02T00:28:49.094Z,69.35
2018-08-02T00:29:49.100Z,69.45
2018-08-02T00:30:49.103Z,69.32
2018-08-02T00:31:49.109Z,69.51
2018-08-02T00:32:49.113Z,70.38
2018-08-02T00:33:49.118Z,70.28
2018-08-02T00:34:49.125Z,69.80
2018-08-02T00:35:49.126Z,70.03
2018-08-02T00:36:49.132Z,69.61
2018-08-02T00:37:49.136Z,70.09
2018-08-02T00:38:49.139Z,70.61
2018-08-02T00:39:49.145Z,70.48
2018-08-02T00:40:49.150Z,70.76
2018-08-02T00:41:49.153Z,70.28
2018-08-02T00:42:49.161Z,70.67
2018-08-02T00:43:49.164Z,71.15
2018-08-02T00:44:49.169Z,70.57
2018-08-02T00:45:49.174Z,70.86
2018-08-02T00:46:49.177Z,70.67
2018-08-02T00:47:49.182Z,70.67
2018-08-02T00:48:49.192Z,70.57
2018-08-02T00:49:49.193Z,70.67
2018-08-02T00:50:49.196Z,70.67
2018-08-02T00:51:49.201Z,71.06
2018-08-02T00:52:49.206Z,70.90
2018-08-02T00:53:49.213Z,70.67
2018-08-02T00:54:49.216Z,70.76
2018-08-02T00:55:49.219Z,71.28
2018-08-02T00:56:49.224Z,71.25
2018-08-02T00:57:49.229Z,70.76
2018-08-02T00:58:49.233Z,71.34
2018-08-02T00:59:49.237Z,71.25
2018-08-02T01:00:49.242Z,71.15
2018-08-02T01:01:49.248Z,71.06
2018-08-02T01:02:49.252Z,71.15
2018-08-02T01:03:49.256Z,71.06
2018-08-02T01:04:49.261Z,71.54
2018-08-02T01:05:49.265Z,71.25
2018-08-02T01:06:49.269Z,71.34
2018-08-02T01:07:49.275Z,71.34
2018-08-02T01:08:49.278Z,71.64
2018-08-02T01:09:49.285Z,72.12
2018-08-02T01:10:49.287Z,71.34
2018-08-02T01:11:49.292Z,72.12
2018-08-02T01:12:49.297Z,72.31
2018-08-02T01:13:49.302Z,72.12
2018-08-02T01:14:49.306Z,72.12
2018-08-02T01:15:49.310Z,72.21
2018-08-02T01:16:49.314Z,72.12
2018-08-02T01:17:49.318Z,72.12
2018-08-02T01:18:49.323Z,72.12
2018-08-02T01:19:49.327Z,71.83
2018-08-02T01:20:49.332Z,72.12
2018-08-02T01:21:49.337Z,72.21
2018-08-02T01:22:49.340Z,72.21
2018-08-02T01:23:49.346Z,72.21
2018-08-02T01:24:49.350Z,72.41
2018-08-02T01:25:49.355Z,72.60
2018-08-02T01:26:49.358Z,72.60
2018-08-02T01:27:49.364Z,72.47
2018-08-02T01:28:49.371Z,72.56
2018-08-02T01:29:49.372Z,72.95
2018-08-02T01:30:49.375Z,72.95
2018-08-02T01:31:49.381Z,72.66
2018-08-02T01:32:49.386Z,73.14
2018-08-02T01:33:49.389Z,73.05
2018-08-02T01:34:49.393Z,73.14
2018-08-02T01:35:49.399Z,73.91
2018-08-02T01:36:49.404Z,73.33
2018-08-02T01:37:49.407Z,73.62
2018-08-02T01:38:49.411Z,73.33
2018-08-02T01:39:49.418Z,73.43
2018-08-02T01:40:49.471Z,73.82
2018-08-02T01:41:49.424Z,74.10
2018-08-02T01:42:49.427Z,73.72
2018-08-02T01:43:49.441Z,73.82
2018-08-02T01:44:49.436Z,73.62
2018-08-02T01:45:49.442Z,73.62
2018-08-02T01:46:49.445Z,73.91
2018-08-02T01:47:49.452Z,73.91
2018-08-02T01:48:49.453Z,73.82
2018-08-02T01:49:49.479Z,73.91
2018-08-02T01:50:49.461Z,73.72
2018-08-02T01:51:49.467Z,74.20
2018-08-02T01:52:49.471Z,74.30
2018-08-02T01:53:49.475Z,74.20
2018-08-02T01:54:49.480Z,74.20
2018-08-02T01:55:49.483Z,74.36
2018-08-02T01:56:49.488Z,74.26
2018-08-02T01:57:49.491Z,74.20
2018-08-02T01:58:49.495Z,73.97
2018-08-02T01:59:49.501Z,74.01
2018-08-02T02:00:49.560Z,74.58
2018-08-02T02:01:49.508Z,73.88
2018-08-02T02:02:49.512Z,74.36
2018-08-02T02:03:49.517Z,73.97
2018-08-02T02:04:49.521Z,74.16
2018-08-02T02:05:49.525Z,74.26
2018-08-02T02:06:49.529Z,74.26
2018-08-02T02:07:49.532Z,74.16
2018-08-02T02:08:49.535Z,74.26
2018-08-02T02:09:49.539Z,74.07
2018-08-02T02:10:49.543Z,74.36
2018-08-02T02:11:49.548Z,74.16
2018-08-02T02:12:49.553Z,74.07
2018-08-02T02:13:49.561Z,74.16
2018-08-02T02:14:49.562Z,74.26
2018-08-02T02:15:49.565Z,74.01
2018-08-02T02:16:49.569Z,74.20
2018-08-02T02:17:49.574Z,74.01
2018-08-02T02:18:49.578Z,74.20
2018-08-02T02:19:49.582Z,74.16
2018-08-02T02:20:49.586Z,73.88
2018-08-02T02:21:49.593Z,74.36
2018-08-02T02:22:49.594Z,74.65
2018-08-02T02:23:49.599Z,74.20
2018-08-02T02:24:49.602Z,74.36
2018-08-02T02:25:49.608Z,74.30
2018-08-02T02:26:49.610Z,74.58
2018-08-02T02:27:49.615Z,74.36
2018-08-02T02:28:49.619Z,75.07
2018-08-02T02:29:49.623Z,74.97
2018-08-02T02:30:49.628Z,75.13
2018-08-02T02:31:49.633Z,75.32
2018-08-02T02:32:49.639Z,75.42
2018-08-02T02:33:49.640Z,75.03
2018-08-02T02:34:49.643Z,74.93
2018-08-02T02:35:49.650Z,75.51
2018-08-02T02:36:49.652Z,75.80
2018-08-02T02:37:49.655Z,75.32
2018-08-02T02:38:49.660Z,75.61
2018-08-02T02:39:49.667Z,75.51
2018-08-02T02:40:49.668Z,75.42
2018-08-02T02:41:49.671Z,75.99
2018-08-02T02:42:49.675Z,75.99
2018-08-02T02:43:49.679Z,76.09
2018-08-02T02:44:49.685Z,76.28
2018-08-02T02:45:49.689Z,76.09
2018-08-02T02:46:49.692Z,75.99
2018-08-02T02:47:49.700Z,75.99
2018-08-02T02:48:49.708Z,76.38
2018-08-02T02:49:49.705Z,76.76
2018-08-02T02:50:49.707Z,76.57
2018-08-02T02:51:49.712Z,76.67
2018-08-02T02:52:49.716Z,76.92
2018-08-02T02:53:49.720Z,76.53
2018-08-02T02:54:49.723Z,76.92
2018-08-02T02:55:49.729Z,76.73
2018-08-02T02:56:49.734Z,76.92
2018-08-02T02:57:49.737Z,77.06
2018-08-02T02:58:49.740Z,77.31
2018-08-02T02:59:49.747Z,77.59
2018-08-02T03:00:49.748Z,77.40
2018-08-02T03:01:49.752Z,76.82
2018-08-02T03:02:49.756Z,77.50
2018-08-02T03:03:49.760Z,77.11
2018-08-02T03:04:49.764Z,77.40
2018-08-02T03:05:49.769Z,77.40
2018-08-02T03:06:49.771Z,77.59
2018-08-02T03:07:49.776Z,77.69
2018-08-02T03:08:49.781Z,77.69
2018-08-02T03:09:49.784Z,78.27
2018-08-02T03:10:49.788Z,78.27
2018-08-02T03:11:49.791Z,78.08
2018-08-02T03:12:49.852Z,78.65
2018-08-02T03:13:49.801Z,78.65
2018-08-02T03:14:49.803Z,78.46
2018-08-02T03:15:49.810Z,78.46
2018-08-02T03:16:49.812Z,78.27
2018-08-02T03:17:49.817Z,78.61
2018-08-02T03:18:49.832Z,79.03
2018-08-02T03:19:49.825Z,79.10
2018-08-02T03:20:49.827Z,79.23
2018-08-02T03:21:49.832Z,78.17
2018-08-02T03:22:49.836Z,78.94
2018-08-02T03:23:49.839Z,78.27
2018-08-02T03:24:49.843Z,78.65
2018-08-02T03:25:49.847Z,78.17
2018-08-02T03:26:49.851Z,78.56
2018-08-02T03:27:49.856Z,78.36
2018-08-02T03:28:49.860Z,77.83
2018-08-02T03:29:49.863Z,77.92
2018-08-02T03:30:49.867Z,77.83
2018-08-02T03:31:49.869Z,77.83
2018-08-02T03:32:49.875Z,77.25
2018-08-02T03:33:49.879Z,78.11
2018-08-02T03:34:49.882Z,77.88
2018-08-02T03:35:49.890Z,77.59
2018-08-02T03:36:49.889Z,78.65
2018-08-02T03:37:49.895Z,78.36
2018-08-02T03:38:49.899Z,79.33
2018-08-02T03:39:49.900Z,79.61
2018-08-02T03:40:49.905Z,79.61
2018-08-02T03:41:49.909Z,79.61
2018-08-02T03:42:49.912Z,79.81
2018-08-02T03:43:49.917Z,80.00
2018-08-02T03:44:49.921Z,79.96
2018-08-02T03:45:49.925Z,79.81
2018-08-02T03:46:49.928Z,79.81
2018-08-02T03:47:49.931Z,80.00
2018-08-02T03:48:49.936Z,79.96
2018-08-02T03:49:49.942Z,80.48
2018-08-02T03:50:49.944Z,79.96
2018-08-02T03:51:49.952Z,80.00
2018-08-02T03:52:49.951Z,79.71
2018-08-02T03:53:49.955Z,80.10
2018-08-02T03:54:50.037Z,80.10
2018-08-02T03:55:49.961Z,80.00
2018-08-02T03:56:49.966Z,80.00
2018-08-02T03:57:49.972Z,80.77
2018-08-02T03:58:49.972Z,80.48
2018-08-02T03:59:49.978Z,80.38
2018-08-02T04:00:49.980Z,80.63
2018-08-02T04:01:49.985Z,80.63
2018-08-02T04:02:49.989Z,80.38
2018-08-02T04:03:49.992Z,80.06
2018-08-02T04:04:49.997Z,80.48
2018-08-02T04:05:49.999Z,80.68
2018-08-02T04:06:50.002Z,80.68
2018-08-02T04:07:50.037Z,80.68
2018-08-02T04:08:50.011Z,80.77
2018-08-02T04:09:50.016Z,80.44
2018-08-02T04:10:50.020Z,81.02
2018-08-02T04:11:50.028Z,80.35
2018-08-02T04:12:50.027Z,81.12
2018-08-02T04:13:50.031Z,80.96
2018-08-02T04:14:50.033Z,81.70
2018-08-02T04:15:50.037Z,80.96
2018-08-02T04:16:50.045Z,81.16
2018-08-02T04:17:50.045Z,81.45
2018-08-02T04:18:50.049Z,80.96
2018-08-02T04:19:50.052Z,79.71
2018-08-02T04:20:50.055Z,79.61
2018-08-02T04:21:50.059Z,79.56
2018-08-02T04:22:50.064Z,79.08
2018-08-02T04:23:50.066Z,78.79
2018-08-02T04:24:50.072Z,78.88
2018-08-02T04:25:50.075Z,79.17
2018-08-02T04:26:50.082Z,79.08
2018-08-02T04:27:50.081Z,79.08
2018-08-02T04:28:50.085Z,79.27
2018-08-02T04:29:50.089Z,79.71
2018-08-02T04:30:50.093Z,79.66
2018-08-02T04:31:50.097Z,79.75
2018-08-02T04:32:50.100Z,79.17
2018-08-02T04:33:50.122Z,78.50
2018-08-02T04:34:50.108Z,78.11
2018-08-02T04:35:50.113Z,78.69
2018-08-02T04:36:50.119Z,78.69
2018-08-02T04:37:50.121Z,78.69
2018-08-02T04:38:50.122Z,78.54
2018-08-02T04:39:50.127Z,77.86
2018-08-02T04:40:50.136Z,77.86
2018-08-02T04:41:50.136Z,77.76
2018-08-02T04:42:50.139Z,78.25
2018-08-02T04:43:50.144Z,77.76
2018-08-02T04:44:50.147Z,78.44
2018-08-02T04:45:50.153Z,78.25
2018-08-02T04:46:50.155Z,78.92
2018-08-02T04:47:50.162Z,78.54
2018-08-02T04:48:50.163Z,79.11
2018-08-02T04:49:50.167Z,79.75
2018-08-02T04:50:50.171Z,79.27
2018-08-02T04:51:50.175Z,78.88
2018-08-02T04:52:50.198Z,79.36
2018-08-02T04:53:50.183Z,79.36
2018-08-02T04:54:50.186Z,79.85
2018-08-02T04:55:50.189Z,79.94
2018-08-02T04:56:50.195Z,79.46
2018-08-02T04:57:50.199Z,79.75
2018-08-02T04:58:50.202Z,79.66
2018-08-02T04:59:50.236Z,79.56
2018-08-02T05:00:50.211Z,79.11
2018-08-02T05:01:50.214Z,78.73
2018-08-02T05:02:50.218Z,78.34
2018-08-02T05:03:50.222Z,78.15
2018-08-02T05:04:50.228Z,78.34
2018-08-02T05:05:50.233Z,77.76
2018-08-02T05:06:50.235Z,78.00
2018-08-02T05:07:50.240Z,77.76
2018-08-02T05:08:50.244Z,77.96
2018-08-02T05:09:50.250Z,77.90
2018-08-02T05:10:50.252Z,77.42
2018-08-02T05:11:50.256Z,78.00
2018-08-02T05:12:50.262Z,77.81
2018-08-02T05:13:50.268Z,77.81
2018-08-02T05:14:50.269Z,77.81
2018-08-02T05:15:50.274Z,77.23
2018-08-02T05:16:50.280Z,77.42
2018-08-02T05:17:50.283Z,77.33
2018-08-02T05:18:50.286Z,76.75
2018-08-02T05:19:50.291Z,77.17
2018-08-02T05:20:50.308Z,76.78
2018-08-02T05:21:50.301Z,77.26
2018-08-02T05:22:50.304Z,76.20
2018-08-02T05:23:50.310Z,75.82
2018-08-02T05:24:50.314Z,75.62
2018-08-02T05:25:50.319Z,75.72
2018-08-02T05:26:50.325Z,75.57
2018-08-02T05:27:50.328Z,75.37
2018-08-02T05:28:50.332Z,74.31
2018-08-02T05:29:50.336Z,74.12
2018-08-02T05:30:50.341Z,74.12
2018-08-02T05:31:50.347Z,74.51
2018-08-02T05:32:50.350Z,74.89
2018-08-02T05:33:50.380Z,74.41
2018-08-02T05:34:50.420Z,74.02
2018-08-02T05:35:50.612Z,74.31
2018-08-02T05:36:50.874Z,74.35
2018-08-02T05:37:50.375Z,74.25
2018-08-02T05:38:50.379Z,74.06
2018-08-02T05:39:50.384Z,73.77
2018-08-02T05:40:50.392Z,73.86
2018-08-02T05:41:50.396Z,73.86
2018-08-02T05:42:50.400Z,74.25
2018-08-02T05:43:50.411Z,74.06
2018-08-02T05:44:50.409Z,73.86
2018-08-02T05:45:50.414Z,73.77
2018-08-02T05:46:50.419Z,73.48
2018-08-02T05:47:50.423Z,73.86
2018-08-02T05:48:50.429Z,73.86
2018-08-02T05:49:50.436Z,73.19
2018-08-02T05:50:50.440Z,73.09
2018-08-02T05:51:50.444Z,72.90
2018-08-02T05:52:50.450Z,72.94
2018-08-02T05:53:50.454Z,73.32
2018-08-02T05:54:50.459Z,72.64
2018-08-02T05:55:50.466Z,72.94
2018-08-02T05:56:50.469Z,72.36
2018-08-02T05:57:50.495Z,71.97
2018-08-02T05:58:50.480Z,72.45
2018-08-02T05:59:50.486Z,71.58
2018-08-02T06:00:50.491Z,71.39
2018-08-02T06:01:50.496Z,71.68
2018-08-02T06:02:50.505Z,71.48
2018-08-02T06:03:50.510Z,71.30
2018-08-02T06:04:50.512Z,71.68
2018-08-02T06:05:50.518Z,70.81
2018-08-02T06:06:50.523Z,70.90
2018-08-02T06:07:50.526Z,70.94
2018-08-02T06:08:50.533Z,70.04
2018-08-02T06:09:50.539Z,69.98
2018-08-02T06:10:50.544Z,70.17
2018-08-02T06:11:50.549Z,69.68
2018-08-02T06:12:50.555Z,69.98
2018-08-02T06:13:50.564Z,69.53
2018-08-02T06:14:50.565Z,69.49
2018-08-02T06:15:50.571Z,69.20
2018-08-02T06:16:50.578Z,69.92
2018-08-02T06:17:50.584Z,69.43
2018-08-02T06:18:50.588Z,69.33
2018-08-02T06:19:50.594Z,69.92
2018-08-02T06:20:50.599Z,69.24
2018-08-02T06:21:50.607Z,68.95
2018-08-02T06:22:50.610Z,68.95
2018-08-02T06:23:50.616Z,68.75
2018-08-02T06:24:50.622Z,68.66
2018-08-02T06:25:50.628Z,68.69
2018-08-02T06:26:50.634Z,68.49
2018-08-02T06:27:50.640Z,68.21
2018-08-02T06:28:50.646Z,68.30
2018-08-02T06:29:50.651Z,68.66
2018-08-02T06:30:50.673Z,68.98
2018-08-02T06:31:50.666Z,68.98
2018-08-02T06:32:50.671Z,68.69
2018-08-02T06:33:50.675Z,68.85
2018-08-02T06:34:50.680Z,69.46
2018-08-02T06:35:50.688Z,68.59
2018-08-02T06:36:50.692Z,69.08
2018-08-02T06:37:50.699Z,68.40
2018-08-02T06:38:50.703Z,68.79
2018-08-02T06:39:50.713Z,68.40
2018-08-02T06:40:50.717Z,68.40
2018-08-02T06:41:50.722Z,68.30
2018-08-02T06:42:50.728Z,68.24
2018-08-02T06:43:50.734Z,68.43
2018-08-02T06:44:50.741Z,68.05
2018-08-02T06:45:50.756Z,67.95
2018-08-02T06:46:50.752Z,68.24
2018-08-02T06:47:50.759Z,68.33
2018-08-02T06:48:50.764Z,68.05
2018-08-02T06:49:50.771Z,68.05
2018-08-02T06:50:50.776Z,68.24
2018-08-02T06:51:50.785Z,68.43
2018-08-02T06:52:50.788Z,68.53
2018-08-02T06:53:50.795Z,68.53
2018-08-02T06:54:50.801Z,68.53
2018-08-02T06:55:50.808Z,68.18
2018-08-02T06:56:50.815Z,68.24
2018-08-02T06:57:50.821Z,68.66
2018-08-02T06:58:50.828Z,67.88
2018-08-02T06:59:50.834Z,67.88
2018-08-02T07:00:50.841Z,67.69
2018-08-02T07:01:50.847Z,67.21
2018-08-02T07:02:50.851Z,67.24
2018-08-02T07:03:50.859Z,67.69
2018-08-02T07:04:50.865Z,67.24
2018-08-02T07:05:50.874Z,67.72
2018-08-02T07:06:50.877Z,67.53
2018-08-02T07:07:50.885Z,66.95
2018-08-02T07:08:50.892Z,66.95
2018-08-02T07:09:50.899Z,66.50
2018-08-02T07:10:50.950Z,66.89
2018-08-02T07:11:50.911Z,66.69
2018-08-02T07:12:50.919Z,65.95
2018-08-02T07:13:50.926Z,65.85
2018-08-02T07:14:50.934Z,65.37
2018-08-02T07:15:50.939Z,64.88
2018-08-02T07:16:50.946Z,65.08
2018-08-02T07:17:50.954Z,65.17
2018-08-02T07:18:50.959Z,65.66
2018-08-02T07:19:50.968Z,65.66
2018-08-02T07:20:50.976Z,65.27
2018-08-02T07:21:50.982Z,64.69
2018-08-02T07:22:50.989Z,65.11
2018-08-02T07:23:51.046Z,63.85
2018-08-02T07:24:51.008Z,64.72
2018-08-02T07:25:51.011Z,64.62
2018-08-02T07:26:51.016Z,64.78
2018-08-02T07:27:51.024Z,64.82
2018-08-02T07:28:51.037Z,64.72
2018-08-02T07:29:51.041Z,64.23
2018-08-02T07:30:51.046Z,64.14
2018-08-02T07:31:51.054Z,63.65
2018-08-02T07:32:51.061Z,64.23
2018-08-02T07:33:51.069Z,63.85
2018-08-02T07:34:51.077Z,63.85
2018-08-02T07:35:51.085Z,64.14
2018-08-02T07:36:51.092Z,63.98
2018-08-02T07:37:51.099Z,63.98
2018-08-02T07:38:51.107Z,63.29
2018-08-02T07:39:51.114Z,63.39
2018-08-02T07:40:51.122Z,63.29
2018-08-02T07:41:51.134Z,62.91
2018-08-02T07:42:51.143Z,63.59
2018-08-02T07:43:51.146Z,62.91
2018-08-02T07:44:51.154Z,63.20
2018-08-02T07:45:51.160Z,63.52
2018-08-02T07:46:51.168Z,63.59
2018-08-02T07:47:51.176Z,64.26
2018-08-02T07:48:51.271Z,63.88
2018-08-02T07:49:51.193Z,63.81
2018-08-02T07:50:51.200Z,63.13
2018-08-02T07:51:51.205Z,62.74
2018-08-02T07:52:51.215Z,62.35
2018-08-02T07:53:51.223Z,61.90
2018-08-02T07:54:51.231Z,62.19
2018-08-02T07:55:51.240Z,61.41
2018-08-02T07:56:51.249Z,61.02
2018-08-02T07:57:51.256Z,61.05
2018-08-02T07:58:51.266Z,60.02
2018-08-02T07:59:51.272Z,59.63
2018-08-02T08:00:51.288Z,58.32
2018-08-02T08:01:51.335Z,56.76
2018-08-02T08:02:51.300Z,55.29
2018-08-02T08:03:51.310Z,53.13
2018-08-02T08:04:51.321Z,52.80
2018-08-02T08:05:51.332Z,53.39
2018-08-02T08:06:51.343Z,52.44
2018-08-02T08:07:51.354Z,52.02
2018-08-02T08:08:51.367Z,52.37
2018-08-02T08:09:51.377Z,50.63
2018-08-02T08:10:51.416Z,49.31
2018-08-02T08:11:51.405Z,48.38
2018-08-02T08:12:51.418Z,48.07
2018-08-02T08:13:51.431Z,48.94
2018-08-02T08:14:51.462Z,47.99
2018-08-02T08:15:51.464Z,47.06
2018-08-02T08:16:51.474Z,45.63
2018-08-02T08:17:51.490Z,44.16
2018-08-02T08:18:51.500Z,46.20
2018-08-02T08:19:51.515Z,46.81
2018-08-02T08:20:51.531Z,46.81
2018-08-02T08:21:51.546Z,46.33
2018-08-02T08:22:51.577Z,48.04
2018-08-02T08:23:51.575Z,47.85
2018-08-02T08:24:51.607Z,47.77
2018-08-02T08:25:51.604Z,46.91
2018-08-02T08:26:51.637Z,46.25
2018-08-02T08:27:51.635Z,45.68
2018-08-02T08:28:51.650Z,45.51
2018-08-02T08:29:51.665Z,44.68
2018-08-02T08:30:51.680Z,47.08
2018-08-02T08:31:51.695Z,47.57
2018-08-02T08:32:51.733Z,46.62
2018-08-02T08:33:51.726Z,45.59
2018-08-02T08:34:51.744Z,44.94
2018-08-02T08:35:51.832Z,44.01
2018-08-02T08:36:51.773Z,44.37
2018-08-02T08:37:51.803Z,44.27
2018-08-02T08:38:51.803Z,44.13
2018-08-02T08:39:51.824Z,44.45
2018-08-02T08:40:51.835Z,45.68
2018-08-02T08:41:51.856Z,47.38
2018-08-02T08:42:51.866Z,47.79
2018-08-02T08:43:51.881Z,46.64
2018-08-02T08:44:51.899Z,45.41
2018-08-02T08:45:51.915Z,44.16
2018-08-02T08:46:51.930Z,43.98
2018-08-02T08:47:51.946Z,44.26
2018-08-02T08:48:51.962Z,44.06
2018-08-02T08:49:51.978Z,42.94
2018-08-02T08:50:52.019Z,42.57
2018-08-02T08:51:52.011Z,42.06
2018-08-02T08:52:52.028Z,43.12
2018-08-02T08:53:52.044Z,42.82
2018-08-02T08:54:52.059Z,42.47
2018-08-02T08:55:52.075Z,41.71
2018-08-02T08:56:52.092Z,41.24
2018-08-02T08:57:52.108Z,40.25
2018-08-02T08:58:52.127Z,40.63
2018-08-02T08:59:52.140Z,40.80
2018-08-02T09:00:52.159Z,41.98
2018-08-02T09:01:52.186Z,41.53
2018-08-02T09:02:52.190Z,40.64
2018-08-02T09:03:52.207Z,40.25
2018-08-02T09:04:52.225Z,40.53
2018-08-02T09:05:52.240Z,41.08
2018-08-02T09:06:52.258Z,42.16
2018-08-02T09:07:52.273Z,41.19
2018-08-02T09:08:52.293Z,41.47
2018-08-02T09:09:52.309Z,42.82
2018-08-02T09:10:52.325Z,43.19
2018-08-02T09:11:52.341Z,42.20
2018-08-02T09:12:52.359Z,40.47
2018-08-02T09:13:52.375Z,39.50
2018-08-02T09:14:52.391Z,38.70
2018-08-02T09:15:52.409Z,39.39
2018-08-02T09:16:52.425Z,39.39
2018-08-02T09:17:52.442Z,39.60
2018-08-02T09:18:52.459Z,40.55
2018-08-02T09:19:52.477Z,41.19
2018-08-02T09:20:52.494Z,41.02
2018-08-02T09:21:52.511Z,40.72
2018-08-02T09:22:52.526Z,41.49
2018-08-02T09:23:52.545Z,40.84
2018-08-02T09:24:52.563Z,39.97
2018-08-02T09:25:52.580Z,39.76
2018-08-02T09:26:52.630Z,39.04
2018-08-02T09:27:52.615Z,38.37
2018-08-02T09:28:52.632Z,37.29
2018-08-02T09:29:52.650Z,37.29
2018-08-02T09:30:52.666Z,37.49
2018-08-02T09:31:52.689Z,37.19
2018-08-02T09:32:52.828Z,37.39
2018-08-02T09:33:52.719Z,37.47
2018-08-02T09:34:52.736Z,38.64
2018-08-02T09:35:52.754Z,39.50
2018-08-02T09:36:52.773Z,39.87
2018-08-02T09:37:52.790Z,41.33
2018-08-02T09:38:52.810Z,40.25
2018-08-02T09:39:52.825Z,40.25
2018-08-02T09:40:52.841Z,40.74
2018-08-02T09:41:52.862Z,39.48
2018-08-02T09:42:52.876Z,39.39
2018-08-02T09:43:52.894Z,38.56
2018-08-02T09:44:52.911Z,37.68
2018-08-02T09:45:52.929Z,37.78
2018-08-02T09:46:53.177Z,37.95
2018-08-02T09:47:52.965Z,38.91
2018-08-02T09:48:52.982Z,40.63
2018-08-02T09:49:53.005Z,41.06
2018-08-02T09:50:53.020Z,41.11
2018-08-02T09:51:53.034Z,40.23
2018-08-02T09:52:53.052Z,39.87
2018-08-02T09:53:53.119Z,37.96
2018-08-02T09:54:53.086Z,37.01
2018-08-02T09:55:53.149Z,36.70
2018-08-02T09:56:53.121Z,37.57
2018-08-02T09:57:53.139Z,37.60
2018-08-02T09:58:53.157Z,36.90
2018-08-02T09:59:53.174Z,36.70
2018-08-02T10:00:53.191Z,36.98
2018-08-02T10:01:53.211Z,36.88
2018-08-02T10:02:53.228Z,37.09
2018-08-02T10:03:53.245Z,37.37
2018-08-02T10:04:53.264Z,38.40
2018-08-02T10:05:53.281Z,40.43
2018-08-02T10:06:53.296Z,41.29
2018-08-02T10:07:53.316Z,39.84
2018-08-02T10:08:53.332Z,40.70
2018-08-02T10:09:53.356Z,42.24
2018-08-02T10:10:53.367Z,40.98
2018-08-02T10:11:53.385Z,40.16
2018-08-02T10:12:53.402Z,39.18
2018-08-02T10:13:53.420Z,38.14
2018-08-02T10:14:53.439Z,37.27
2018-08-02T10:15:53.454Z,40.72
2018-08-02T10:16:53.473Z,40.74
2018-08-02T10:17:53.491Z,39.31
2018-08-02T10:18:53.511Z,38.16
2018-08-02T10:19:53.524Z,37.83
2018-08-02T10:20:53.541Z,38.64
2018-08-02T10:21:53.559Z,38.91
2018-08-02T10:22:53.575Z,38.14
2018-08-02T10:23:53.593Z,38.83
2018-08-02T10:24:53.610Z,39.17
2018-08-02T10:25:53.627Z,38.62
2018-08-02T10:26:53.644Z,37.87
2018-08-02T10:27:53.663Z,37.07
2018-08-02T10:28:53.680Z,36.32
2018-08-02T10:29:53.697Z,35.83
2018-08-02T10:30:53.738Z,36.00
2018-08-02T10:31:53.731Z,35.83
2018-08-02T10:32:53.748Z,35.45
2018-08-02T10:33:53.766Z,35.55
2018-08-02T10:34:53.785Z,35.25
2018-08-02T10:35:53.803Z,35.55
2018-08-02T10:36:53.817Z,35.07
2018-08-02T10:37:53.833Z,35.19
2018-08-02T10:38:53.853Z,35.47
2018-08-02T10:39:53.868Z,37.45
2018-08-02T10:40:53.886Z,38.42
2018-08-02T10:41:53.903Z,38.22
2018-08-02T10:42:53.917Z,38.22
2018-08-02T10:43:53.950Z,37.47
2018-08-02T10:44:53.953Z,36.50
2018-08-02T10:45:53.970Z,37.27
2018-08-02T10:46:53.985Z,36.22
2018-08-02T10:47:54.002Z,36.11
2018-08-02T10:48:54.020Z,36.98
2018-08-02T10:49:54.041Z,38.38
2018-08-02T10:50:54.052Z,38.42
2018-08-02T10:51:54.072Z,37.95
2018-08-02T10:52:54.088Z,37.07
2018-08-02T10:53:54.105Z,37.81
2018-08-02T10:54:54.120Z,39.90
2018-08-02T10:55:54.217Z,41.03
2018-08-02T10:56:54.154Z,42.86
2018-08-02T10:57:54.176Z,43.80
2018-08-02T10:58:54.185Z,44.07
2018-08-02T10:59:54.204Z,45.03
2018-08-02T11:00:54.222Z,45.32
2018-08-02T11:01:54.237Z,45.79
2018-08-02T11:02:54.254Z,47.04
2018-08-02T11:03:54.268Z,46.65
2018-08-02T11:04:54.283Z,47.33
2018-08-02T11:05:54.298Z,47.89
2018-08-02T11:06:54.335Z,47.50
2018-08-02T11:07:54.329Z,47.82
2018-08-02T11:08:54.344Z,48.31
2018-08-02T11:09:54.374Z,46.62
2018-08-02T11:10:54.374Z,45.19
2018-08-02T11:11:54.388Z,44.13
2018-08-02T11:12:54.404Z,44.33
2018-08-02T11:13:54.422Z,43.10
2018-08-02T11:14:54.435Z,41.08
2018-08-02T11:15:54.449Z,40.39
2018-08-02T11:16:54.464Z,41.06
2018-08-02T11:17:54.479Z,41.33
2018-08-02T11:18:54.491Z,40.74
2018-08-02T11:19:54.510Z,41.09
2018-08-02T11:20:54.524Z,43.21
2018-08-02T11:21:54.537Z,43.92
2018-08-02T11:22:54.610Z,43.02
2018-08-02T11:23:54.565Z,43.99
2018-08-02T11:24:54.581Z,43.13
2018-08-02T11:25:54.595Z,43.62
2018-08-02T11:26:54.608Z,43.90
2018-08-02T11:27:54.624Z,44.46
2018-08-02T11:28:54.638Z,44.48
2018-08-02T11:29:54.653Z,43.99
2018-08-02T11:30:54.665Z,43.82
2018-08-02T11:31:54.679Z,43.43
2018-08-02T11:32:54.700Z,43.12
2018-08-02T11:33:54.765Z,44.17
2018-08-02T11:34:54.722Z,43.98
2018-08-02T11:35:54.743Z,42.78
2018-08-02T11:36:54.750Z,42.90
2018-08-02T11:37:54.764Z,42.48
2018-08-02T11:38:54.777Z,42.21
2018-08-02T11:39:54.792Z,42.50
2018-08-02T11:40:54.805Z,42.03
2018-08-02T11:41:54.821Z,40.98
2018-08-02T11:42:54.833Z,40.78
2018-08-02T11:43:54.890Z,40.98
2018-08-02T11:44:54.861Z,42.43
2018-08-02T11:45:54.873Z,42.91
2018-08-02T11:46:54.887Z,42.60
2018-08-02T11:47:54.903Z,43.09
2018-08-02T11:48:54.915Z,43.48
2018-08-02T11:49:54.928Z,43.48
2018-08-02T11:50:55.011Z,43.88
2018-08-02T11:51:54.955Z,43.98
2018-08-02T11:52:54.969Z,43.88
2018-08-02T11:53:54.982Z,44.19
2018-08-02T11:54:54.995Z,44.37
2018-08-02T11:55:55.009Z,44.46
2018-08-02T11:56:55.123Z,45.05
2018-08-02T11:57:55.035Z,43.99
2018-08-02T11:58:55.051Z,43.92
2018-08-02T11:59:55.060Z,43.12
2018-08-02T12:00:55.074Z,43.88
2018-08-02T12:01:55.147Z,44.34
2018-08-02T12:02:55.101Z,44.54
2018-08-02T12:03:55.161Z,44.44
2018-08-02T12:04:55.127Z,45.03
2018-08-02T12:05:55.143Z,44.93
2018-08-02T12:06:55.152Z,44.44
2018-08-02T12:07:55.166Z,44.56
2018-08-02T12:08:55.179Z,43.77
2018-08-02T12:09:55.192Z,43.88
2018-08-02T12:10:55.205Z,43.90
2018-08-02T12:11:55.217Z,43.33
2018-08-02T12:12:55.233Z,42.94
2018-08-02T12:13:55.243Z,41.98
2018-08-02T12:14:55.262Z,41.58
2018-08-02T12:15:55.271Z,40.82
2018-08-02T12:16:55.282Z,41.31
2018-08-02T12:17:55.295Z,41.51
2018-08-02T12:18:55.309Z,41.68
2018-08-02T12:19:55.321Z,40.80
2018-08-02T12:20:55.335Z,41.02
2018-08-02T12:21:55.378Z,41.19
2018-08-02T12:22:55.370Z,41.49
2018-08-02T12:23:55.442Z,40.90
2018-08-02T12:24:55.390Z,41.00
2018-08-02T12:25:55.400Z,41.21
2018-08-02T12:26:55.411Z,40.53
2018-08-02T12:27:55.461Z,40.63
2018-08-02T12:28:55.449Z,40.43
2018-08-02T12:29:55.451Z,40.61
2018-08-02T12:30:55.471Z,40.70
2018-08-02T12:31:55.477Z,41.56
2018-08-02T12:32:55.489Z,42.33
2018-08-02T12:33:55.505Z,42.43
2018-08-02T12:34:55.518Z,42.43
2018-08-02T12:35:55.529Z,42.82
2018-08-02T12:36:55.562Z,43.02
2018-08-02T12:37:55.558Z,42.43
2018-08-02T12:38:55.567Z,42.43
2018-08-02T12:39:55.580Z,42.13
2018-08-02T12:40:55.595Z,42.25
2018-08-02T12:41:55.606Z,42.74
2018-08-02T12:42:55.619Z,42.65
2018-08-02T12:43:55.632Z,42.05
2018-08-02T12:44:55.644Z,41.49
2018-08-02T12:45:55.666Z,41.39
2018-08-02T12:46:55.671Z,41.49
2018-08-02T12:47:55.751Z,40.72
2018-08-02T12:48:55.695Z,40.33
2018-08-02T12:49:55.724Z,40.23
2018-08-02T12:50:55.722Z,40.92
2018-08-02T12:51:55.793Z,40.33
2018-08-02T12:52:55.879Z,40.33